Time;durP1;ratioP1;P1;durP2;ratioP2;P2;SDS_P1;SDS_P2;PMS_P1;PMS_P2;Temp;Humidity;BMP_temperature;BMP_pressure;BME280_temperature;BME280_humidity;BME280_pressure;Samples;Min_cycle;Max_cycle;Signal;HPM_P1;HPM_P2
2022/08/10 00:00:19;;;;;;;9.38;7.95;;;;;;;62.74;100.00;61586.06;4953073;28;20369;-82
2022/08/10 00:02:12;;;;;;;8.38;7.47;;;;;;;42.00;100.00;61586.06;4951131;28;20105;-82
2022/08/10 00:04:38;;;;;;;7.68;7.07;;;;;;;62.74;100.00;61586.06;4955458;28;20031;-82
2022/08/10 00:07:03;;;;;;;7.43;6.82;;;;;;;31.63;100.00;61586.06;4953039;28;20138;-83
2022/08/10 00:09:29;;;;;;;10.57;7.68;;;;;;;62.74;100.00;61586.06;4953099;29;20050;-83
2022/08/10 00:11:54;;;;;;;8.18;7.22;;;;;;;24.19;100.00;61586.06;4952266;28;20499;-82
2022/08/10 00:14:20;;;;;;;8.05;7.38;;;;;;;-144.47;100.00;61586.06;4955831;28;20047;-83
2022/08/10 00:16:45;;;;;;;8.38;7.57;;;;;;;62.74;100.00;61586.06;4957544;28;20104;-84
2022/08/10 00:19:11;;;;;;;9.05;8.05;;;;;;;42.00;100.00;61586.06;4956546;28;20031;-83
2022/08/10 00:21:37;;;;;;;8.27;7.55;;;;;;;42.00;100.00;61586.06;4956825;28;20034;-82
2022/08/10 00:24:03;;;;;;;8.02;7.38;;;;;;;104.25;100.00;61586.06;4956681;28;20035;-81
2022/08/10 00:26:28;;;;;;;9.68;8.00;;;;;;;62.74;100.00;61586.06;4956705;28;20546;-83
2022/08/10 00:28:53;;;;;;;8.50;7.45;;;;;;;104.25;100.00;61586.06;4956793;28;20471;-83
2022/08/10 00:31:19;;;;;;;8.88;8.05;;;;;;;25.15;100.00;61586.06;4956049;29;20392;-83
2022/08/10 00:33:44;;;;;;;8.15;7.28;;;;;;;62.74;100.00;61586.06;4955436;28;20114;-82
2022/08/10 00:36:10;;;;;;;9.02;7.68;;;;;;;-144.47;100.00;61586.06;4938394;29;20032;-82
2022/08/10 00:38:36;;;;;;;9.35;7.80;;;;;;;42.00;100.00;61586.06;4955993;28;20051;-83
2022/08/10 00:41:01;;;;;;;8.75;8.02;;;;;;;-144.47;100.00;61586.06;4956452;28;20024;-82
2022/08/10 00:43:27;;;;;;;8.52;7.68;;;;;;;-144.47;100.00;61586.06;4956206;28;20047;-82
2022/08/10 00:45:52;;;;;;;7.97;7.32;;;;;;;62.74;100.00;61586.06;4956670;28;20038;-84
2022/08/10 00:48:18;;;;;;;8.80;7.70;;;;;;;-144.47;100.00;61586.06;4960583;28;20427;-83
2022/08/10 00:50:43;;;;;;;8.52;7.70;;;;;;;104.25;100.00;61586.06;4934443;28;20035;-82
2022/08/10 00:53:09;;;;;;;7.30;6.63;;;;;;;62.74;100.00;61586.06;4956568;28;20090;-82
2022/08/10 00:55:35;;;;;;;8.55;7.75;;;;;;;42.00;100.00;61586.06;4955722;28;20035;-83
2022/08/10 00:58:01;;;;;;;8.60;7.80;;;;;;;31.63;100.00;61586.06;4955891;28;20042;-84
2022/08/10 01:00:28;;;;;;;8.90;7.10;;;;;;;62.74;100.00;61586.06;4955940;28;20086;-82
2022/08/10 01:02:54;;;;;;;8.93;7.63;;;;;;;104.25;100.00;61586.06;4958802;28;20070;-83
2022/08/10 01:05:20;;;;;;;8.18;7.40;;;;;;;62.74;100.00;61586.06;4955755;29;20451;-83
2022/08/10 01:07:52;;;;;;;7.78;7.18;;;;;;;23.71;100.00;61586.06;4958029;28;20027;-83
2022/08/10 01:10:40;;;;;;;7.90;7.18;;;;;;;-144.47;100.00;61586.06;4955263;28;20043;-84
2022/08/10 01:13:16;;;;;;;9.02;7.30;;;;;;;104.25;100.00;61586.06;4957384;28;20063;-83
2022/08/10 01:15:58;;;;;;;8.45;7.72;;;;;;;23.32;100.00;61586.06;4955394;28;20042;-83
2022/08/10 01:18:53;;;;;;;12.23;7.88;;;;;;;104.25;100.00;61586.06;4954474;28;20464;-83
2022/08/10 01:21:39;;;;;;;8.10;7.50;;;;;;;-144.47;100.00;61586.06;4915304;28;20418;-83
2022/08/10 01:24:04;;;;;;;9.02;8.15;;;;;;;104.25;100.00;61586.06;4952241;28;20070;-81
2022/08/10 01:26:48;;;;;;;8.15;7.55;;;;;;;-144.47;100.00;61586.06;4953346;28;20062;-82
2022/08/10 01:29:31;;;;;;;8.27;7.53;;;;;;;62.74;100.00;61586.06;4953642;28;20050;-83
2022/08/10 01:32:02;;;;;;;9.10;8.30;;;;;;;42.00;100.00;61586.06;4956943;28;20046;-84
2022/08/10 01:34:33;;;;;;;;;;;;;;;104.25;100.00;61586.06;4955031;28;20388;-81
2022/08/10 01:37:03;;;;;;;11.52;8.20;;;;;;;104.25;100.00;61586.06;4952824;28;20296;-82
2022/08/10 01:39:34;;;;;;;9.00;7.93;;;;;;;42.00;100.00;61586.06;4954160;28;20043;-82
2022/08/10 01:42:01;;;;;;;9.10;8.18;;;;;;;62.74;100.00;61586.06;4953809;28;20039;-81
2022/08/10 01:44:32;;;;;;;8.93;8.02;;;;;;;62.74;100.00;61586.06;4954790;28;20027;-81
2022/08/10 01:50:03;;;;;;;10.57;8.02;;;;;;;104.25;100.00;61586.06;4954675;28;20535;-82
2022/08/10 01:52:30;;;;;;;9.40;8.50;;;;;;;-144.47;100.00;61586.06;4957000;28;20446;-81
2022/08/10 01:55:00;;;;;;;8.60;7.90;;;;;;;104.25;100.00;61586.06;4954706;28;20035;-82
2022/08/10 01:57:30;;;;;;;8.75;7.90;;;;;;;62.74;100.00;61586.06;4939803;29;20041;-80
2022/08/10 01:59:57;;;;;;;8.55;7.75;;;;;;;-144.47;100.00;61586.06;4954967;29;20070;-81
2022/08/10 02:02:25;;;;;;;9.13;8.18;;;;;;;-144.47;100.00;61586.06;4956389;28;20035;-81
2022/08/10 02:04:52;;;;;;;9.23;7.97;;;;;;;-144.47;100.00;61586.06;4954440;28;20514;-82
2022/08/10 02:07:21;;;;;;;8.18;7.57;;;;;;;-144.47;100.00;61586.06;4935120;28;20047;-82
2022/08/10 02:09:51;;;;;;;8.93;8.18;;;;;;;104.25;100.00;61586.06;4954100;28;20067;-81
2022/08/10 02:12:28;;;;;;;9.50;8.70;;;;;;;26.45;100.00;61586.06;4978394;23;20077;-80
2022/08/10 02:15:07;;;;;;;9.23;8.15;;;;;;;104.25;100.00;61586.06;4955773;28;20035;-80
2022/08/10 02:17:44;;;;;;;9.75;8.75;;;;;;;42.00;100.00;61586.06;4968317;28;21442;-79
2022/08/10 02:20:16;;;;;;;9.45;8.60;;;;;;;62.74;100.00;61586.06;4973669;28;20034;-80
2022/08/10 02:22:44;;;;;;;9.55;8.70;;;;;;;-144.47;100.00;61586.06;4973169;28;20434;-80
2022/08/10 02:25:12;;;;;;;10.40;9.15;;;;;;;-144.47;100.00;61586.06;4975936;28;20117;-80
2022/08/10 02:27:39;;;;;;;9.50;8.60;;;;;;;-144.47;100.00;61586.06;4973029;28;20375;-79
2022/08/10 02:30:07;;;;;;;9.10;8.40;;;;;;;-144.47;100.00;61586.06;4973414;28;20030;-80
2022/08/10 02:32:34;;;;;;;10.30;9.20;;;;;;;-144.47;100.00;61586.06;4972849;28;20137;-80
2022/08/10 02:35:03;;;;;;;11.10;8.75;;;;;;;-144.47;100.00;61586.06;4972044;28;20502;-80
2022/08/10 02:37:29;;;;;;;9.52;8.60;;;;;;;-144.47;100.00;61586.06;4970002;28;20022;-80
2022/08/10 02:39:56;;;;;;;9.68;8.98;;;;;;;-144.47;100.00;61586.06;4973161;28;20434;-80
2022/08/10 02:42:24;;;;;;;10.00;9.10;;;;;;;-144.47;100.00;61586.06;4973140;28;20062;-79
2022/08/10 02:44:58;;;;;;;9.45;8.55;;;;;;;-144.47;100.00;61586.06;4975122;28;20497;-79
2022/08/10 02:47:45;;;;;;;9.25;8.35;;;;;;;-144.47;100.00;61586.06;4972853;28;20034;-79
2022/08/10 02:50:25;;;;;;;9.30;8.50;;;;;;;-144.47;100.00;61586.06;4973223;28;20136;-80
2022/08/10 02:53:08;;;;;;;9.00;8.30;;;;;;;-144.47;100.00;61586.06;4973883;28;20443;-78
2022/08/10 02:55:45;;;;;;;9.30;8.48;;;;;;;22.93;100.00;61586.06;4970717;28;20049;-80
2022/08/10 02:58:24;;;;;;;9.73;8.93;;;;;;;-144.47;100.00;61586.06;4973487;28;20113;-80
2022/08/10 03:00:56;;;;;;;10.25;9.30;;;;;;;-144.47;100.00;61586.06;4972762;28;20391;-79
2022/08/10 03:03:26;;;;;;;10.13;8.68;;;;;;;-144.47;100.00;61586.06;4972655;28;20027;-79
2022/08/10 03:05:54;;;;;;;;;;;;;;;-144.47;100.00;61586.06;4975898;28;20451;-79
2022/08/10 03:08:23;;;;;;;11.68;8.98;;;;;;;-144.47;100.00;61586.06;4973073;28;19973;-79
2022/08/10 03:10:51;;;;;;;9.40;8.60;;;;;;;-144.47;100.00;61586.06;4973046;28;20447;-80
2022/08/10 03:13:18;;;;;;;10.38;8.68;;;;;;;-144.47;100.00;61586.06;4972895;28;20121;-80
2022/08/10 03:15:44;;;;;;;10.50;8.63;;;;;;;-144.47;100.00;61586.06;4972386;28;20153;-80
2022/08/10 03:18:12;;;;;;;10.88;8.82;;;;;;;-144.47;100.00;61586.06;4973310;28;20109;-80
2022/08/10 03:20:41;;;;;;;9.73;8.85;;;;;;;-144.47;100.00;61586.06;4972596;28;20038;-80
2022/08/10 03:23:13;;;;;;;9.80;9.10;;;;;;;-144.47;100.00;61586.06;4973272;28;20109;-80
2022/08/10 03:25:42;;;;;;;10.95;9.57;;;;;;;-144.47;100.00;61586.06;4972667;28;20069;-80
2022/08/10 03:28:09;;;;;;;10.02;9.02;;;;;;;-144.47;100.00;61586.06;4973058;28;20123;-80
2022/08/10 03:30:36;;;;;;;11.23;9.95;;;;;;;-144.47;100.00;61586.06;4973365;28;20141;-80
2022/08/10 03:33:04;;;;;;;10.07;9.32;;;;;;;-144.47;100.00;61586.06;4973256;28;20431;-80
2022/08/10 03:35:30;;;;;;;9.60;8.85;;;;;;;-144.47;100.00;61586.06;4969709;28;20081;-80
2022/08/10 03:37:55;;;;;;;14.13;10.25;;;;;;;-144.47;100.00;61586.06;4973317;28;20390;-80
2022/08/10 03:40:22;;;;;;;10.70;9.80;;;;;;;187.31;100.00;61586.06;4955456;28;20074;-79
2022/08/10 03:42:50;;;;;;;11.18;9.77;;;;;;;187.31;100.00;61586.06;4973092;28;20043;-80
2022/08/10 03:45:16;;;;;;;10.68;9.77;;;;;;;187.31;100.00;61586.06;4973274;28;20055;-80
2022/08/10 03:47:44;;;;;;;11.65;10.40;;;;;;;22.25;100.00;61586.06;4973405;28;20085;-80
2022/08/10 03:50:12;;;;;;;10.55;9.65;;;;;;;187.31;100.00;61586.06;4976402;28;20034;-80
2022/08/10 03:52:38;;;;;;;10.25;9.25;;;;;;;187.31;100.00;61586.06;4976496;28;20110;-80
2022/08/10 03:55:04;;;;;;;9.80;9.00;;;;;;;104.25;100.00;61586.06;4977083;28;20121;-80
2022/08/10 03:57:30;;;;;;;10.70;9.38;;;;;;;187.31;100.00;61586.06;4975747;28;20427;-80
2022/08/10 03:59:56;;;;;;;10.10;9.10;;;;;;;104.25;100.00;61586.06;4976952;28;20387;-79
2022/08/10 04:02:22;;;;;;;9.77;8.98;;;;;;;-144.47;100.00;61586.06;4978346;28;20027;-79
2022/08/10 04:04:48;;;;;;;10.85;9.90;;;;;;;187.31;100.00;61586.06;4959327;28;20398;-79
2022/08/10 04:07:13;;;;;;;9.95;9.15;;;;;;;187.31;100.00;61586.06;4976987;28;20065;-80
2022/08/10 04:09:40;;;;;;;10.48;9.50;;;;;;;-144.47;100.00;61586.06;4976318;28;20035;-80
2022/08/10 04:12:06;;;;;;;10.82;9.63;;;;;;;-144.47;100.00;61586.06;4975858;28;20101;-80
2022/08/10 04:14:31;;;;;;;10.57;9.52;;;;;;;-144.47;100.00;61586.06;4976556;28;20070;-80
2022/08/10 04:16:59;;;;;;;10.82;9.75;;;;;;;-144.47;100.00;61586.06;4977609;28;20035;-80
2022/08/10 04:19:28;;;;;;;10.38;9.43;;;;;;;-144.47;100.00;61586.06;4975782;28;20387;-79
2022/08/10 04:22:06;;;;;;;11.90;9.55;;;;;;;-144.47;100.00;61586.06;4976417;28;20047;-79
2022/08/10 04:24:35;;;;;;;10.20;9.23;;;;;;;-144.47;100.00;61586.06;4975290;28;20033;-80
2022/08/10 04:27:01;;;;;;;12.50;9.45;;;;;;;21.83;100.00;81860.38;4973229;28;20387;-79
2022/08/10 04:29:27;;;;;;;10.95;9.90;;;;;;;-144.47;100.00;61586.06;4976823;28;20085;-80
2022/08/10 04:31:53;;;;;;;10.65;9.65;;;;;;;187.31;100.00;61586.06;4977570;28;20047;-78
2022/08/10 04:34:19;;;;;;;11.25;9.35;;;;;;;21.90;100.00;81870.22;4976291;28;20033;-80
2022/08/10 04:36:48;;;;;;;12.60;10.65;;;;;;;21.78;100.00;82132.63;4977077;28;20372;-80
2022/08/10 04:39:14;;;;;;;11.30;10.18;;;;;;;21.69;100.00;61586.06;4976669;28;20395;-79
2022/08/10 04:41:40;;;;;;;10.98;9.98;;;;;;;-144.47;100.00;61586.06;4975826;28;20038;-80
2022/08/10 04:44:06;;;;;;;11.38;10.32;;;;;;;-144.47;100.00;61586.06;4975975;28;20034;-80
2022/08/10 04:46:32;;;;;;;11.95;10.95;;;;;;;-144.47;100.00;61586.06;4958402;28;20038;-80
2022/08/10 04:48:58;;;;;;;14.38;9.98;;;;;;;104.25;100.00;61586.06;4976432;28;20105;-80
2022/08/10 04:51:23;;;;;;;11.15;10.05;;;;;;;21.26;100.00;61586.06;4975705;28;20031;-79
2022/08/10 04:53:50;;;;;;;12.02;10.65;;;;;;;-144.47;100.00;61586.06;4975087;28;20034;-80
2022/08/10 04:56:16;;;;;;;13.43;10.82;;;;;;;-144.47;100.00;61586.06;4975944;28;20406;-80
2022/08/10 04:58:41;;;;;;;12.00;11.00;;;;;;;-144.47;100.00;61586.06;4975262;28;20387;-80
2022/08/10 05:01:07;;;;;;;12.10;10.88;;;;;;;-144.47;100.00;61586.06;4974972;28;20030;-80
2022/08/10 05:03:33;;;;;;;11.63;10.68;;;;;;;-144.47;100.00;61586.06;4978098;28;20066;-80
2022/08/10 05:05:58;;;;;;;11.77;10.65;;;;;;;-144.47;100.00;61586.06;4975633;28;20034;-80
2022/08/10 05:08:25;;;;;;;11.75;10.75;;;;;;;-144.47;100.00;61586.06;4975584;28;20034;-80
2022/08/10 05:10:51;;;;;;;12.07;10.93;;;;;;;-144.47;100.00;61586.06;4975707;28;20035;-79
2022/08/10 05:13:17;;;;;;;14.68;10.63;;;;;;;-144.47;100.00;61586.06;4975390;28;20050;-80
2022/08/10 05:15:44;;;;;;;12.18;10.93;;;;;;;-144.47;100.00;61586.06;4975237;28;20043;-80
2022/08/10 05:18:10;;;;;;;10.88;9.85;;;;;;;-144.47;100.00;61586.06;4958231;28;20035;-80
2022/08/10 05:20:37;;;;;;;12.07;10.82;;;;;;;-144.47;100.00;61586.06;4975306;28;20035;-80
2022/08/10 05:23:03;;;;;;;12.02;10.93;;;;;;;-144.47;100.00;61586.06;4973501;28;20082;-80
2022/08/10 05:25:29;;;;;;;10.68;9.68;;;;;;;-144.47;100.00;61586.06;4975230;28;20031;-80
2022/08/10 05:27:54;;;;;;;13.30;10.63;;;;;;;-144.47;100.00;61586.06;4975216;28;20034;-80
2022/08/10 05:30:21;;;;;;;11.48;9.55;;;;;;;-144.47;100.00;61586.06;4975328;28;20034;-80
2022/08/10 05:32:48;;;;;;;11.68;10.55;;;;;;;-144.47;100.00;61586.06;4975049;28;20030;-81
2022/08/10 05:35:13;;;;;;;10.85;9.82;;;;;;;-144.47;100.00;61586.06;4975611;28;20041;-80
2022/08/10 05:37:40;;;;;;;10.55;9.60;;;;;;;-144.47;100.00;61586.06;4974861;28;20034;-81
2022/08/10 05:40:07;;;;;;;10.02;9.05;;;;;;;-144.47;100.00;61586.06;4975515;28;20514;-80
2022/08/10 05:42:33;;;;;;;10.20;9.20;;;;;;;-144.47;100.00;61586.06;4975027;28;20035;-80
2022/08/10 05:44:59;;;;;;;10.95;8.80;;;;;;;-144.47;100.00;61586.06;4973705;28;20049;-80
2022/08/10 05:47:25;;;;;;;9.15;8.45;;;;;;;-144.47;100.00;61586.06;4974915;28;20030;-80
2022/08/10 05:49:54;;;;;;;8.85;7.85;;;;;;;-144.47;100.00;61586.06;4974919;28;20038;-80
2022/08/10 05:52:20;;;;;;;8.52;7.82;;;;;;;-144.47;100.00;61586.06;4974687;28;20034;-80
2022/08/10 05:54:46;;;;;;;10.73;7.63;;;;;;;187.31;100.00;61586.06;4974401;28;20031;-79
2022/08/10 05:57:14;;;;;;;8.95;8.15;;;;;;;-144.47;100.00;61586.06;4972743;28;20462;-78
2022/08/10 05:59:46;;;;;;;9.13;8.35;;;;;;;-144.47;100.00;61586.06;4956706;28;20078;-80
2022/08/10 06:02:16;;;;;;;8.73;7.95;;;;;;;187.31;100.00;61586.06;4974230;28;20031;-79
2022/08/10 06:04:44;;;;;;;13.05;8.15;;;;;;;-144.47;100.00;61586.06;4975199;28;20043;-80
2022/08/10 06:07:14;;;;;;;8.27;7.65;;;;;;;-144.47;100.00;61586.06;4974198;28;20037;-80
2022/08/10 06:09:42;;;;;;;8.65;7.85;;;;;;;-144.47;100.00;61586.06;4973654;28;20034;-80
2022/08/10 06:12:09;;;;;;;8.45;7.57;;;;;;;23.29;100.00;61586.06;4973173;28;20050;-79
2022/08/10 06:17:23;;;;;;;8.98;7.47;;;;;;;-144.47;100.00;61586.06;4973743;28;20034;-80
2022/08/10 06:19:49;;;;;;;8.63;7.47;;;;;;;-144.47;100.00;61586.06;4973769;28;20031;-80
2022/08/10 06:22:16;;;;;;;8.32;7.53;;;;;;;23.51;100.00;61586.06;4973889;28;20107;-80
2022/08/10 06:24:42;;;;;;;8.90;7.97;;;;;;;42.00;100.00;61586.06;4973645;28;20042;-81
2022/08/10 06:27:08;;;;;;;8.95;7.97;;;;;;;42.00;100.00;61586.06;4973607;28;20487;-80
2022/08/10 06:29:39;;;;;;;8.60;7.72;;;;;;;23.64;100.00;61586.06;4973361;28;20041;-80
2022/08/10 06:32:07;;;;;;;9.05;7.47;;;;;;;42.00;100.00;61586.06;4973830;28;20035;-80
2022/08/10 06:34:45;;;;;;;9.00;7.47;;;;;;;62.74;100.00;61586.06;4973683;28;20106;-81
2022/08/10 06:37:13;;;;;;;10.60;6.93;;;;;;;62.74;100.00;61586.06;4971364;28;20073;-80
2022/08/10 06:39:39;;;;;;;10.52;7.45;;;;;;;-144.47;100.00;61586.06;4974705;28;20034;-80
2022/08/10 06:42:18;;;;;;;7.78;7.00;;;;;;;-144.47;100.00;61586.06;4974825;28;20102;-80
2022/08/10 06:44:58;;;;;;;7.68;6.78;;;;;;;62.74;100.00;61586.06;4974167;28;20081;-80
2022/08/10 06:47:42;;;;;;;7.40;6.70;;;;;;;42.00;100.00;61586.06;4974429;28;20035;-80
2022/08/10 06:50:28;;;;;;;9.27;7.80;;;;;;;42.00;100.00;61586.06;4976170;28;20037;-79
2022/08/10 06:52:55;;;;;;;7.35;6.60;;;;;;;31.63;100.00;61586.06;4975096;28;20055;-80
2022/08/10 06:55:23;;;;;;;8.00;7.20;;;;;;;42.00;100.00;61586.06;4973131;28;20113;-80
2022/08/10 06:57:51;;;;;;;8.10;7.40;;;;;;;31.63;100.00;61586.06;4973541;28;20057;-80
2022/08/10 07:00:17;;;;;;;8.50;7.38;;;;;;;24.34;100.00;61586.06;4974228;28;20058;-81
2022/08/10 07:02:57;;;;;;;10.52;7.03;;;;;;;24.41;100.00;82207.13;4972942;28;20114;-80
2022/08/10 07:05:27;;;;;;;7.30;6.60;;;;;;;42.00;100.00;61586.06;4972666;28;20047;-80
2022/08/10 07:07:58;;;;;;;;;;;;;;;42.00;100.00;61586.06;4956239;28;20155;-80
2022/08/10 07:10:26;;;;;;;6.90;6.30;;;;;;;31.63;100.00;61586.06;4972731;28;19964;-80
2022/08/10 07:12:56;;;;;;;10.70;6.88;;;;;;;25.15;100.00;61586.06;4972095;28;20046;-80
2022/08/10 07:15:24;;;;;;;8.98;6.70;;;;;;;-144.47;100.00;61586.06;4972807;28;20125;-80
2022/08/10 07:17:52;;;;;;;7.63;6.82;;;;;;;104.25;100.00;61586.06;4973050;28;20159;-80
2022/08/10 07:20:20;;;;;;;7.70;7.00;;;;;;;-144.47;100.00;61586.06;4972669;28;20498;-81
2022/08/10 07:22:52;;;;;;;7.05;6.45;;;;;;;-144.47;100.00;61586.06;4974648;28;20034;-78
2022/08/10 07:25:24;;;;;;;7.32;6.28;;;;;;;-144.47;100.00;61586.06;4979052;28;20510;-80
2022/08/10 07:27:52;;;;;;;9.50;6.90;;;;;;;-144.47;100.00;61586.06;4979491;28;20061;-80
2022/08/10 07:30:17;;;;;;;7.38;6.43;;;;;;;104.25;100.00;61586.06;4979433;28;20549;-81
2022/08/10 07:32:46;;;;;;;7.10;6.40;;;;;;;-144.47;100.00;61586.06;4978908;28;20039;-80
2022/08/10 07:35:14;;;;;;;7.25;6.65;;;;;;;-144.47;100.00;61586.06;4979082;28;20030;-80
2022/08/10 07:37:45;;;;;;;8.10;6.75;;;;;;;-144.47;100.00;61586.06;4979067;28;20535;-81
2022/08/10 07:40:13;;;;;;;7.85;6.88;;;;;;;-144.47;100.00;61586.06;4978857;28;20482;-78
2022/08/10 07:42:41;;;;;;;7.45;5.82;;;;;;;-144.47;100.00;61586.06;4978848;28;20034;-80
2022/08/10 07:45:07;;;;;;;6.50;5.72;;;;;;;-144.47;100.00;61586.06;4979261;28;20501;-79
2022/08/10 07:47:38;;;;;;;6.63;5.80;;;;;;;-144.47;100.00;61586.06;4978926;28;20038;-80
2022/08/10 07:50:07;;;;;;;6.55;5.88;;;;;;;187.31;100.00;61586.06;4978116;28;20061;-80
2022/08/10 07:52:36;;;;;;;6.43;5.90;;;;;;;-144.47;100.00;61586.06;4979162;28;20110;-79
2022/08/10 07:55:05;;;;;;;8.25;5.22;;;;;;;-144.47;100.00;61586.06;4975866;28;20043;-81
2022/08/10 07:57:33;;;;;;;9.07;5.40;;;;;;;-144.47;100.00;61586.06;4978893;28;20027;-80
2022/08/10 08:00:04;;;;;;;5.53;4.90;;;;;;;187.31;100.00;61586.06;4979539;28;20042;-80
2022/08/10 08:02:45;;;;;;;6.25;5.65;;;;;;;-144.47;100.00;61586.06;4979002;28;20537;-80
2022/08/10 08:05:13;;;;;;;6.80;5.50;;;;;;;-144.47;100.00;61586.06;4979181;28;20023;-81
2022/08/10 08:07:41;;;;;;;6.57;4.70;;;;;;;-144.47;100.00;61586.06;4979083;28;20821;-80
2022/08/10 08:10:13;;;;;;;5.70;5.28;;;;;;;-144.47;100.00;61586.06;4978724;28;20553;-78
2022/08/10 08:12:41;;;;;;;5.80;5.30;;;;;;;-144.47;100.00;61586.06;4980061;28;20035;-80
2022/08/10 08:15:12;;;;;;;5.80;5.30;;;;;;;-144.47;100.00;61586.06;4979420;28;20407;-79
2022/08/10 08:17:41;;;;;;;7.85;6.22;;;;;;;-144.47;100.00;61586.06;4978697;28;20491;-80
2022/08/10 08:20:08;;;;;;;7.70;6.20;;;;;;;-144.47;100.00;61586.06;4978872;28;20487;-80
2022/08/10 08:22:35;;;;;;;5.70;5.20;;;;;;;-144.47;100.00;61586.06;4978773;28;20531;-79
2022/08/10 08:25:03;;;;;;;8.13;5.00;;;;;;;-144.47;100.00;61586.06;4960014;28;20505;-81
2022/08/10 08:27:30;;;;;;;7.80;5.60;;;;;;;-144.47;100.00;61586.06;4978563;28;20403;-80
2022/08/10 08:29:58;;;;;;;8.57;5.30;;;;;;;-144.47;100.00;61586.06;4979134;28;20089;-78
2022/08/10 08:32:28;;;;;;;8.52;5.57;;;;;;;-144.47;100.00;61586.06;4978538;28;20094;-79
2022/08/10 08:34:56;;;;;;;;;;;;;;;-144.47;100.00;61586.06;4976889;28;20391;-79
2022/08/10 08:37:25;;;;;;;6.80;5.60;;;;;;;-144.47;100.00;61586.06;4975699;28;19922;-79
2022/08/10 08:39:51;;;;;;;6.07;5.07;;;;;;;26.28;100.00;61586.06;4958596;28;20562;-79
2022/08/10 08:42:38;;;;;;;5.82;4.90;;;;;;;-144.47;100.00;61586.06;4962417;28;20081;-81
2022/08/10 08:45:20;;;;;;;5.45;4.95;;;;;;;-144.47;100.00;61586.06;4975900;28;20063;-82
2022/08/10 08:48:33;;;;;;;5.85;5.15;;;;;;;-144.47;100.00;61586.06;4973748;28;20121;-80
2022/08/10 08:51:09;;;;;;;8.05;5.22;;;;;;;-144.47;100.00;61586.06;4916440;28;20126;-81
2022/08/10 08:54:19;;;;;;;5.78;5.00;;;;;;;-144.47;100.00;61586.06;4972709;28;20034;-81
2022/08/10 08:57:04;;;;;;;5.20;4.70;;;;;;;-144.47;100.00;61586.06;4901937;29;20525;-81
2022/08/10 08:59:57;;;;;;;5.32;4.60;;;;;;;-144.47;100.00;61586.06;4914612;29;20532;-81
2022/08/10 09:03:24;;;;;;;6.30;4.43;;;;;;;-144.47;100.00;61586.06;4914887;29;20130;-81
2022/08/10 09:05:59;;;;;;;4.93;4.53;;;;;;;104.25;100.00;61586.06;4876811;29;20048;-81
2022/08/10 09:08:48;;;;;;;5.38;4.65;;;;;;;104.25;100.00;61586.06;4877939;29;20064;-80
2022/08/10 09:11:41;;;;;;;4.90;4.40;;;;;;;104.25;100.00;61586.06;4876321;29;20065;-81
2022/08/10 09:14:12;;;;;;;4.88;4.40;;;;;;;104.25;100.00;61586.06;4876218;29;20041;-81
2022/08/10 09:16:56;;;;;;;5.63;5.05;;;;;;;104.25;100.00;61586.06;4877969;29;20045;-81
2022/08/10 09:19:36;;;;;;;5.35;4.20;;;;;;;104.25;100.00;61586.06;4876678;29;20048;-81
2022/08/10 09:22:17;;;;;;;5.82;3.90;;;;;;;104.25;100.00;61586.06;4877772;29;20085;-80
2022/08/10 09:24:51;;;;;;;4.60;4.00;;;;;;;-144.47;100.00;61586.06;4875387;29;20418;-79
2022/08/10 09:27:34;;;;;;;4.72;4.28;;;;;;;104.25;100.00;61586.06;4894325;29;20076;-81
2022/08/10 09:30:06;;;;;;;5.93;4.18;;;;;;;104.25;100.00;61586.06;4912068;29;20048;-81
2022/08/10 09:32:32;;;;;;;4.43;4.07;;;;;;;104.25;100.00;61586.06;4911212;29;20131;-81
2022/08/10 09:35:22;;;;;;;6.45;3.95;;;;;;;104.25;100.00;61586.06;4914916;29;20123;-82
2022/08/10 09:38:20;;;;;;;5.03;4.50;;;;;;;104.25;100.00;61586.06;4913726;29;20036;-81
2022/08/10 09:41:10;;;;;;;4.72;3.97;;;;;;;104.25;100.00;61586.06;4951087;28;20415;-81
2022/08/10 09:43:49;;;;;;;5.95;4.25;;;;;;;104.25;100.00;61586.06;4972115;28;20434;-81
2022/08/10 09:46:21;;;;;;;5.07;4.63;;;;;;;104.25;100.00;61586.06;4974465;28;20379;-79
2022/08/10 09:49:10;;;;;;;7.03;4.72;;;;;;;27.36;100.00;61586.06;4974623;28;20127;-80
2022/08/10 09:51:52;;;;;;;6.25;5.22;;;;;;;27.35;100.00;61586.06;4971253;28;20035;-80
2022/08/10 09:54:53;;;;;;;6.32;4.70;;;;;;;104.25;100.00;61586.06;4974836;28;20113;-80
2022/08/10 09:57:32;;;;;;;5.97;4.40;;;;;;;62.74;100.00;61586.06;4960161;28;20051;-80
2022/08/10 10:00:11;;;;;;;5.43;4.20;;;;;;;104.25;100.00;61586.06;4977536;28;20073;-80
2022/08/10 10:02:56;;;;;;;5.25;4.07;;;;;;;-144.47;100.00;61586.06;4976513;28;20195;-81
2022/08/10 10:05:52;;;;;;;5.95;4.40;;;;;;;104.25;100.00;61586.06;4975971;28;20109;-81
2022/08/10 10:08:47;;;;;;;5.20;4.78;;;;;;;104.25;100.00;61586.06;4974252;28;20122;-79
2022/08/10 10:11:34;;;;;;;4.10;3.70;;;;;;;-144.47;100.00;61586.06;4973847;28;20034;-80
2022/08/10 10:15:19;;;;;;;4.07;3.72;;;;;;;27.62;100.00;61586.06;4974613;28;20169;-81
2022/08/10 10:17:57;;;;;;;4.65;4.25;;;;;;;104.25;100.00;61586.06;4974168;28;20395;-81
2022/08/10 10:20:50;;;;;;;4.95;4.03;;;;;;;104.25;100.00;61586.06;4972958;28;20035;-80
2022/08/10 10:23:31;;;;;;;3.85;3.55;;;;;;;104.25;100.00;61586.06;4974583;28;20378;-80
2022/08/10 10:26:15;;;;;;;5.97;3.90;;;;;;;29.04;100.00;61586.06;4974045;28;20039;-79
2022/08/10 10:28:53;;;;;;;4.95;3.72;;;;;;;29.04;100.00;61586.06;4972705;28;20033;-82
2022/08/10 10:31:37;;;;;;;7.50;3.60;;;;;;;31.63;100.00;61586.06;4974033;28;20030;-80
2022/08/10 10:34:40;;;;;;;7.05;3.95;;;;;;;29.04;100.00;61586.06;4971049;28;20066;-80
2022/08/10 10:37:09;;;;;;;3.80;3.50;;;;;;;29.04;100.00;61586.06;4974495;28;20092;-80
2022/08/10 10:39:40;;;;;;;4.22;3.92;;;;;;;29.04;100.00;61586.06;4974233;28;20360;-80
2022/08/10 10:42:06;;;;;;;4.18;3.67;;;;;;;29.04;100.00;61586.06;4973834;28;20389;-80
2022/08/10 10:44:44;;;;;;;4.53;3.25;;;;;;;29.04;100.00;61586.06;4973448;28;20034;-80
2022/08/10 10:47:45;;;;;;;3.53;3.22;;;;;;;29.04;100.00;61586.06;4971801;28;20178;-81
2022/08/10 10:50:40;;;;;;;4.63;4.00;;;;;;;29.04;100.00;61586.06;4972096;28;20038;-81
2022/08/10 10:53:21;;;;;;;4.45;3.45;;;;;;;29.04;100.00;61586.06;4947662;28;20042;-79
2022/08/10 10:55:55;;;;;;;4.28;3.78;;;;;;;104.25;100.00;61586.06;4973825;28;20041;-81
2022/08/10 10:58:29;;;;;;;5.43;3.55;;;;;;;104.25;100.00;61586.06;4972689;28;20030;-80
2022/08/10 11:01:13;;;;;;;5.72;3.30;;;;;;;104.25;100.00;61586.06;4973416;28;20043;-80
2022/08/10 11:04:04;;;;;;;4.00;3.17;;;;;;;104.25;100.00;61586.06;4973487;28;20514;-80
2022/08/10 11:06:50;;;;;;;3.80;3.38;;;;;;;104.25;100.00;61586.06;4973891;28;20035;-80
2022/08/10 11:09:41;;;;;;;3.92;3.33;;;;;;;187.31;100.00;61586.06;4972948;28;20046;-79
2022/08/10 11:12:20;;;;;;;6.15;3.53;;;;;;;104.25;100.00;61586.06;4973883;28;20439;-79
2022/08/10 11:15:05;;;;;;;4.18;3.78;;;;;;;187.31;100.00;61586.06;4972868;28;20035;-79
2022/08/10 11:17:44;;;;;;;3.75;3.42;;;;;;;-144.47;100.00;61586.06;4973860;28;20042;-80
2022/08/10 11:20:48;;;;;;;5.95;3.17;;;;;;;187.31;100.00;61586.06;4972519;28;20050;-81
2022/08/10 11:23:21;;;;;;;3.45;2.70;;;;;;;-144.47;100.00;61586.06;4912335;29;20491;-80
2022/08/10 11:26:03;;;;;;;4.45;2.75;;;;;;;28.96;100.00;61586.06;4915020;29;20549;-79
2022/08/10 11:28:42;;;;;;;3.40;3.10;;;;;;;187.31;100.00;61586.06;4914093;29;20131;-80
2022/08/10 11:31:49;;;;;;;2.77;2.53;;;;;;;187.31;100.00;61586.06;4915056;29;20052;-80
2022/08/10 11:34:26;;;;;;;3.10;2.85;;;;;;;104.25;100.00;61586.06;4857937;29;20097;-79
2022/08/10 11:37:14;;;;;;;2.53;2.30;;;;;;;104.25;100.00;61586.06;4858001;29;20109;-80
2022/08/10 11:40:05;;;;;;;3.30;3.00;;;;;;;187.31;100.00;61586.06;4857588;29;20442;-81
2022/08/10 11:43:09;;;;;;;3.58;2.30;;;;;;;104.25;100.00;61586.06;4857063;29;20421;-78
2022/08/10 11:45:40;;;;;;;5.25;2.15;;;;;;;104.25;100.00;61586.06;4854677;29;20050;-79